createdAt,value
2017-09-05T00:02:22.235Z,8.90
2017-09-05T00:04:56.661Z,9.00
2017-09-05T00:07:31.518Z,9.70
2017-09-05T00:10:08.261Z,11.02
2017-09-05T00:12:46.538Z,9.95
2017-09-05T00:18:19.898Z,8.85
2017-09-05T00:20:54.355Z,10.40
2017-09-05T00:23:28.775Z,9.13
2017-09-05T00:26:03.191Z,11.15
2017-09-05T00:28:37.569Z,8.82
2017-09-05T00:31:11.985Z,9.30
2017-09-05T00:33:46.380Z,10.07
2017-09-05T00:36:20.683Z,10.60
2017-09-05T00:38:55.017Z,9.40
2017-09-05T00:41:29.449Z,11.35
2017-09-05T00:44:03.797Z,10.45
2017-09-05T00:46:38.254Z,14.07
2017-09-05T00:49:12.821Z,12.40
2017-09-05T00:51:47.215Z,12.07
2017-09-05T00:54:21.869Z,13.18
2017-09-05T00:56:56.361Z,12.73
2017-09-05T00:59:30.977Z,13.93
2017-09-05T01:02:05.298Z,12.85
2017-09-05T01:04:39.670Z,14.93
2017-09-05T01:07:14.017Z,14.95
2017-09-05T01:09:48.813Z,14.20
2017-09-05T01:12:23.270Z,17.12
2017-09-05T01:14:57.741Z,15.18
2017-09-05T01:17:32.061Z,13.05
2017-09-05T01:20:06.465Z,17.40
2017-09-05T01:22:40.862Z,19.12
2017-09-05T01:25:15.256Z,18.70
2017-09-05T01:27:49.654Z,15.75
2017-09-05T01:30:24.373Z,16.00
2017-09-05T01:32:58.689Z,21.50
2017-09-05T01:35:33.064Z,18.87
2017-09-05T01:38:07.456Z,19.23
2017-09-05T01:40:41.877Z,22.70
2017-09-05T01:43:16.390Z,21.27
2017-09-05T01:45:50.872Z,19.60
2017-09-05T01:48:25.298Z,20.23
2017-09-05T01:50:59.863Z,19.77
2017-09-05T01:53:34.324Z,20.20
2017-09-05T01:56:08.624Z,21.60
2017-09-05T01:58:43.145Z,19.92
2017-09-05T02:01:17.480Z,24.15
2017-09-05T02:03:52.851Z,23.08
2017-09-05T02:06:27.557Z,23.67
2017-09-05T02:09:01.871Z,29.30
2017-09-05T02:11:36.301Z,22.67
2017-09-05T02:14:10.678Z,24.40
2017-09-05T02:16:45.255Z,23.65
2017-09-05T02:19:19.725Z,22.62
2017-09-05T02:21:54.044Z,23.00
2017-09-05T02:24:29.313Z,23.45
2017-09-05T02:27:03.632Z,22.30
2017-09-05T02:29:38.323Z,22.42
2017-09-05T02:32:12.769Z,22.48
2017-09-05T02:34:47.343Z,22.40
2017-09-05T02:37:21.809Z,20.00
2017-09-05T02:39:56.269Z,21.67
2017-09-05T02:42:30.683Z,21.05
2017-09-05T02:45:05.018Z,22.67
2017-09-05T02:47:39.449Z,22.25
2017-09-05T02:50:13.832Z,20.75
2017-09-05T02:52:48.148Z,22.50
2017-09-05T02:55:22.482Z,27.27
2017-09-05T02:57:56.864Z,27.17
2017-09-05T03:00:31.256Z,24.95
2017-09-05T03:03:05.760Z,26.42
2017-09-05T03:05:40.097Z,25.10
2017-09-05T03:08:14.564Z,25.85
2017-09-05T03:10:49.057Z,22.00
2017-09-05T03:13:23.459Z,21.95
2017-09-05T03:15:57.824Z,22.33
2017-09-05T03:18:32.268Z,20.45
2017-09-05T03:21:06.604Z,20.40
2017-09-05T03:23:40.985Z,20.23
2017-09-05T03:26:15.442Z,18.40
2017-09-05T03:28:49.749Z,20.17
2017-09-05T03:31:24.256Z,21.10
2017-09-05T03:33:58.776Z,16.15
2017-09-05T03:36:33.245Z,17.25
2017-09-05T03:39:07.761Z,15.70
2017-09-05T03:41:42.294Z,14.60
2017-09-05T03:44:16.704Z,12.82
2017-09-05T03:46:51.032Z,14.32
2017-09-05T03:49:25.462Z,14.80
2017-09-05T03:51:59.883Z,13.38
2017-09-05T03:54:34.286Z,14.15
2017-09-05T03:57:08.741Z,12.45
2017-09-05T03:59:43.147Z,14.35
2017-09-05T04:02:17.641Z,12.07
2017-09-05T04:04:51.933Z,11.90
2017-09-05T04:07:26.287Z,9.95
2017-09-05T04:10:00.697Z,11.00
2017-09-05T04:12:35.101Z,9.98
2017-09-05T04:15:09.520Z,11.07
2017-09-05T04:17:44.037Z,12.55
2017-09-05T04:20:18.584Z,13.82
2017-09-05T04:22:53.047Z,21.55
2017-09-05T04:25:27.406Z,14.65
2017-09-05T04:28:05.845Z,20.73
2017-09-05T04:30:40.201Z,21.25
2017-09-05T04:33:15.045Z,22.02
2017-09-05T04:35:49.694Z,23.08
2017-09-05T04:38:24.162Z,27.10
2017-09-05T04:40:58.872Z,24.20
2017-09-05T04:43:33.368Z,25.95
2017-09-05T04:46:07.925Z,24.23
2017-09-05T04:48:42.255Z,23.73
2017-09-05T04:51:16.704Z,21.98
2017-09-05T04:53:51.154Z,20.40
2017-09-05T04:56:25.513Z,22.20
2017-09-05T04:58:59.977Z,23.67
2017-09-05T05:01:34.728Z,20.62
2017-09-05T05:04:09.027Z,20.92
2017-09-05T05:06:43.559Z,22.62
2017-09-05T05:09:17.936Z,23.62
2017-09-05T05:11:52.266Z,19.37
2017-09-05T05:14:26.630Z,22.27
2017-09-05T05:17:01.211Z,20.60
2017-09-05T05:19:35.937Z,18.92
2017-09-05T05:22:10.354Z,17.98
2017-09-05T05:24:44.668Z,17.08
2017-09-05T05:27:18.993Z,15.90
2017-09-05T05:29:53.422Z,16.17
2017-09-05T05:32:27.950Z,16.33
2017-09-05T05:35:02.414Z,16.65
2017-09-05T05:37:36.855Z,14.35
2017-09-05T05:40:11.266Z,14.93
2017-09-05T05:42:45.594Z,13.65
2017-09-05T05:45:20.025Z,16.80
2017-09-05T05:47:54.445Z,12.32
2017-09-05T05:50:28.865Z,11.88
2017-09-05T05:53:03.313Z,12.68
2017-09-05T05:55:38.539Z,13.02
2017-09-05T05:58:12.873Z,12.75
2017-09-05T06:00:47.308Z,9.77
2017-09-05T06:03:21.623Z,13.07
2017-09-05T06:05:56.827Z,10.20
2017-09-05T06:08:31.252Z,8.95
2017-09-05T06:11:05.648Z,9.20
2017-09-05T06:13:39.967Z,7.80
2017-09-05T06:16:14.269Z,8.23
2017-09-05T06:18:48.905Z,7.95
2017-09-05T06:21:23.374Z,8.43
2017-09-05T06:23:57.735Z,8.13
2017-09-05T06:26:32.165Z,7.90
2017-09-05T06:29:06.486Z,8.30
2017-09-05T06:31:41.003Z,8.85
2017-09-05T06:34:15.322Z,8.43
2017-09-05T06:36:49.781Z,8.10
2017-09-05T06:39:24.244Z,8.20
2017-09-05T06:41:58.589Z,8.43
2017-09-05T06:44:32.917Z,7.45
2017-09-05T06:47:07.328Z,6.80
2017-09-05T06:49:41.676Z,7.87
2017-09-05T06:52:16.108Z,8.90
2017-09-05T06:54:50.592Z,7.95
2017-09-05T06:57:25.217Z,7.90
2017-09-05T06:59:59.683Z,7.50
2017-09-05T07:02:34.070Z,7.97
2017-09-05T07:05:08.330Z,8.05
2017-09-05T07:07:42.942Z,8.82
2017-09-05T07:10:17.410Z,8.07
2017-09-05T07:12:51.760Z,9.00
2017-09-05T07:15:26.225Z,12.13
2017-09-05T07:18:00.609Z,9.27
2017-09-05T07:20:34.969Z,8.65
2017-09-05T07:23:09.489Z,8.38
2017-09-05T07:25:44.483Z,9.15
2017-09-05T07:28:18.959Z,8.80
2017-09-05T07:30:53.519Z,8.23
2017-09-05T07:33:27.969Z,9.05
2017-09-05T07:36:02.294Z,8.85
2017-09-05T07:38:36.701Z,8.98
2017-09-05T07:41:11.141Z,9.10
2017-09-05T07:43:45.452Z,8.32
2017-09-05T07:46:19.725Z,9.57
2017-09-05T07:48:54.205Z,10.75
2017-09-05T07:51:28.603Z,8.27
2017-09-05T07:54:03.090Z,10.20
2017-09-05T07:56:37.553Z,9.00
2017-09-05T07:59:11.928Z,10.68
2017-09-05T08:01:46.417Z,11.43
2017-09-05T08:04:20.965Z,16.02
2017-09-05T08:06:55.334Z,10.65
2017-09-05T08:09:29.774Z,12.40
2017-09-05T08:12:04.307Z,11.75
2017-09-05T08:14:38.650Z,12.90
2017-09-05T08:17:12.999Z,15.60
2017-09-05T08:19:47.456Z,12.32
2017-09-05T08:22:21.957Z,11.15
2017-09-05T08:24:56.325Z,15.63
2017-09-05T08:27:30.976Z,11.05
2017-09-05T08:30:05.495Z,11.45
2017-09-05T08:32:39.799Z,11.20
2017-09-05T08:35:14.161Z,12.50
2017-09-05T08:37:48.505Z,11.95
2017-09-05T08:40:23.046Z,11.38
2017-09-05T08:42:57.579Z,10.80
2017-09-05T08:45:32.061Z,10.48
2017-09-05T08:48:07.110Z,10.27
2017-09-05T08:50:41.412Z,11.65
2017-09-05T08:53:15.761Z,10.45
2017-09-05T08:55:50.148Z,11.43
2017-09-05T08:58:24.639Z,12.30
2017-09-05T09:00:59.106Z,13.50
2017-09-05T09:03:33.543Z,14.10
2017-09-05T09:06:08.038Z,14.30
2017-09-05T09:08:43.285Z,14.68
2017-09-05T09:11:17.728Z,14.82
2017-09-05T09:13:52.357Z,14.50
2017-09-05T09:16:26.801Z,16.40
2017-09-05T09:19:01.279Z,15.23
2017-09-05T09:21:35.798Z,14.20
2017-09-05T09:24:10.427Z,14.30
2017-09-05T09:26:44.787Z,14.57
2017-09-05T09:29:19.208Z,15.17
2017-09-05T09:31:53.513Z,12.87
2017-09-05T09:34:27.973Z,12.63
2017-09-05T09:37:02.449Z,12.37
2017-09-05T09:39:36.972Z,14.23
2017-09-05T09:42:11.403Z,13.10
2017-09-05T09:44:46.013Z,13.63
2017-09-05T09:47:20.541Z,13.43
2017-09-05T09:49:55.110Z,15.00
2017-09-05T09:52:29.578Z,12.73
2017-09-05T09:55:04.270Z,12.60
2017-09-05T09:57:38.659Z,13.73
2017-09-05T10:00:13.111Z,12.33
2017-09-05T10:02:48.169Z,12.83
2017-09-05T10:05:22.658Z,11.33
2017-09-05T10:07:56.970Z,12.53
2017-09-05T10:10:31.441Z,12.70
2017-09-05T10:13:06.705Z,13.13
2017-09-05T10:15:41.097Z,11.70
2017-09-05T10:18:15.501Z,12.67
2017-09-05T10:20:49.869Z,14.77
2017-09-05T10:23:24.309Z,12.20
2017-09-05T10:25:58.775Z,14.30
2017-09-05T10:28:33.216Z,13.40
2017-09-05T10:31:07.757Z,12.03
2017-09-05T10:33:42.279Z,14.43
2017-09-05T10:36:16.724Z,12.10
2017-09-05T10:38:51.185Z,12.10
2017-09-05T10:41:25.673Z,13.43
2017-09-05T10:44:00.298Z,12.73
2017-09-05T10:46:34.617Z,12.97
2017-09-05T10:49:09.229Z,13.90
2017-09-05T10:51:43.666Z,13.10
2017-09-05T10:54:18.122Z,11.87
2017-09-05T10:56:52.558Z,12.57
2017-09-05T10:59:27.013Z,11.47
2017-09-05T11:02:01.821Z,14.83
2017-09-05T11:04:36.236Z,9.80
2017-09-05T11:07:10.668Z,11.83
2017-09-05T11:09:45.589Z,12.47
2017-09-05T11:12:20.088Z,12.40
2017-09-05T11:14:54.607Z,10.60
2017-09-05T11:17:28.990Z,13.73
2017-09-05T11:20:03.364Z,12.53
2017-09-05T11:22:38.610Z,11.07
2017-09-05T11:25:13.073Z,13.93
2017-09-05T11:27:47.502Z,12.37
2017-09-05T11:30:21.978Z,10.83
2017-09-05T11:32:56.399Z,13.10
2017-09-05T11:35:30.895Z,12.33
2017-09-05T11:38:05.188Z,13.77
2017-09-05T11:40:40.463Z,12.33
2017-09-05T11:43:14.883Z,14.20
2017-09-05T11:45:49.305Z,18.73
2017-09-05T11:48:23.780Z,13.30
2017-09-05T11:50:58.419Z,12.93
2017-09-05T11:53:32.880Z,13.57
2017-09-05T11:56:08.266Z,14.20
2017-09-05T11:58:42.558Z,12.90
2017-09-05T12:01:16.901Z,12.60
2017-09-05T12:03:51.411Z,15.53
2017-09-05T12:06:26.101Z,16.27
2017-09-05T12:09:00.642Z,16.07
2017-09-05T12:11:35.193Z,14.97
2017-09-05T12:14:09.653Z,15.03
2017-09-05T12:16:44.053Z,16.07
2017-09-05T12:19:18.412Z,13.80
2017-09-05T12:21:52.833Z,13.90
2017-09-05T12:24:27.342Z,14.53
2017-09-05T12:27:01.726Z,14.13
2017-09-05T12:29:36.149Z,14.27
2017-09-05T12:32:10.557Z,15.83
2017-09-05T12:34:45.000Z,13.97
2017-09-05T12:37:20.380Z,12.80
2017-09-05T12:39:54.869Z,13.70
2017-09-05T12:42:29.266Z,15.57
2017-09-05T12:45:03.788Z,14.00
2017-09-05T12:47:38.280Z,14.67
2017-09-05T12:50:12.722Z,15.83
2017-09-05T12:52:47.371Z,21.23
2017-09-05T12:58:26.437Z,13.53
2017-09-05T13:01:00.865Z,13.77
2017-09-05T13:03:36.682Z,12.73
2017-09-05T13:06:11.669Z,13.20
2017-09-05T13:08:46.122Z,12.27
2017-09-05T13:11:21.344Z,10.43
2017-09-05T13:13:55.802Z,13.47
2017-09-05T13:16:30.468Z,12.00
2017-09-05T13:19:04.789Z,14.93
2017-09-05T13:21:39.312Z,14.13
2017-09-05T13:24:13.814Z,13.00
2017-09-05T13:26:48.205Z,14.23
2017-09-05T13:29:22.612Z,13.40
2017-09-05T13:31:57.032Z,15.93
2017-09-05T13:34:31.420Z,14.33
2017-09-05T13:37:05.912Z,14.80
2017-09-05T13:39:40.542Z,15.33
2017-09-05T13:42:15.021Z,15.70
2017-09-05T13:44:49.605Z,15.67
2017-09-05T13:47:24.016Z,14.20
2017-09-05T13:49:58.904Z,12.80
2017-09-05T13:52:33.212Z,15.43
2017-09-05T13:55:08.541Z,13.53
2017-09-05T13:57:43.499Z,13.20
2017-09-05T14:00:18.868Z,13.20
2017-09-05T14:02:53.274Z,14.97
2017-09-05T14:05:27.641Z,16.87
2017-09-05T14:08:01.991Z,15.53
2017-09-05T14:10:36.442Z,13.50
2017-09-05T14:13:10.925Z,13.30
2017-09-05T14:15:45.398Z,13.33
2017-09-05T14:18:19.787Z,15.50
2017-09-05T14:20:54.220Z,15.47
2017-09-05T14:23:28.668Z,13.20
2017-09-05T14:26:03.897Z,15.23
2017-09-05T14:28:38.238Z,15.13
2017-09-05T14:31:12.705Z,15.23
2017-09-05T14:33:47.062Z,15.53
2017-09-05T14:36:21.435Z,14.90
2017-09-05T14:38:55.882Z,13.83
2017-09-05T14:41:30.327Z,13.87
2017-09-05T14:44:04.738Z,12.57
2017-09-05T14:46:39.309Z,16.73
2017-09-05T14:49:13.836Z,11.43
2017-09-05T14:51:48.455Z,13.50
2017-09-05T14:54:23.097Z,12.83
2017-09-05T14:56:57.612Z,11.97
2017-09-05T14:59:32.100Z,12.47
2017-09-05T15:02:06.709Z,13.50
2017-09-05T15:04:41.166Z,12.80
2017-09-05T15:07:15.722Z,11.50
2017-09-05T15:09:50.121Z,11.53
2017-09-05T15:12:25.765Z,10.70
2017-09-05T15:15:00.310Z,11.20
2017-09-05T15:17:34.696Z,12.67
2017-09-05T15:20:09.347Z,13.63
2017-09-05T15:22:43.925Z,13.40
2017-09-05T15:25:18.291Z,12.40
2017-09-05T15:27:52.804Z,14.70
2017-09-05T15:30:28.192Z,12.80
2017-09-05T15:33:02.837Z,11.20
2017-09-05T15:35:37.298Z,12.40
2017-09-05T15:38:12.023Z,12.23
2017-09-05T15:40:46.640Z,10.70
2017-09-05T15:43:23.448Z,11.20
2017-09-05T15:45:58.996Z,11.10
2017-09-05T15:48:33.603Z,10.87
2017-09-05T15:51:07.924Z,10.90
2017-09-05T15:53:42.507Z,11.67
2017-09-05T15:56:16.999Z,11.87
2017-09-05T15:58:51.970Z,12.17
2017-09-05T16:01:26.334Z,14.40
2017-09-05T16:04:07.134Z,11.47
2017-09-05T16:06:41.827Z,11.93
2017-09-05T16:09:16.687Z,11.50
2017-09-05T16:11:55.676Z,9.60
2017-09-05T16:14:30.410Z,12.43
2017-09-05T16:17:07.107Z,11.17
2017-09-05T16:19:41.905Z,10.80
2017-09-05T16:22:20.883Z,10.93
2017-09-05T16:24:55.394Z,11.40
2017-09-05T16:27:30.494Z,11.50
2017-09-05T16:30:05.300Z,10.63
2017-09-05T16:32:39.805Z,10.10
2017-09-05T16:35:14.270Z,12.27
2017-09-05T16:37:50.463Z,10.13
2017-09-05T16:40:28.293Z,11.00
2017-09-05T16:43:03.156Z,10.90
2017-09-05T16:45:38.087Z,13.00
2017-09-05T16:48:20.232Z,10.67
2017-09-05T16:50:54.868Z,10.10
2017-09-05T16:53:29.599Z,10.63
2017-09-05T16:56:04.321Z,11.80
2017-09-05T16:58:39.193Z,11.80
2017-09-05T17:01:13.814Z,10.33
2017-09-05T17:03:49.224Z,12.90
2017-09-05T17:06:25.443Z,10.37
2017-09-05T17:09:00.125Z,13.57
2017-09-05T17:11:37.313Z,10.00
2017-09-05T17:14:21.342Z,10.47
2017-09-05T17:16:57.067Z,9.60
2017-09-05T17:19:33.105Z,11.30
2017-09-05T17:22:09.561Z,10.57
2017-09-05T17:24:43.880Z,10.33
2017-09-05T17:27:18.288Z,12.50
2017-09-05T17:29:52.781Z,11.10
2017-09-05T17:32:27.153Z,10.87
2017-09-05T17:35:01.530Z,11.83
2017-09-05T17:37:36.228Z,11.20
2017-09-05T17:40:10.573Z,10.63
2017-09-05T17:42:45.163Z,11.03
2017-09-05T17:45:19.663Z,11.60
2017-09-05T17:47:53.997Z,8.90
2017-09-05T17:50:28.412Z,10.43
2017-09-05T17:53:02.805Z,10.10
2017-09-05T17:55:37.413Z,9.50
2017-09-05T17:58:11.846Z,8.90
2017-09-05T18:00:46.469Z,10.77
2017-09-05T18:03:20.765Z,9.27
2017-09-05T18:05:55.524Z,9.70
2017-09-05T18:08:30.867Z,8.10
2017-09-05T18:11:05.421Z,8.50
2017-09-05T18:13:39.788Z,8.87
2017-09-05T18:16:15.154Z,9.23
2017-09-05T18:18:49.564Z,9.63
2017-09-05T18:21:24.997Z,10.37
2017-09-05T18:23:59.422Z,10.03
2017-09-05T18:26:33.950Z,10.03
2017-09-05T18:29:08.457Z,8.27
2017-09-05T18:31:42.801Z,11.47
2017-09-05T18:34:17.296Z,10.60
2017-09-05T18:36:51.897Z,11.30
2017-09-05T18:39:26.227Z,16.77
2017-09-05T18:42:00.754Z,11.63
2017-09-05T18:44:35.274Z,10.17
2017-09-05T18:47:09.770Z,8.90
2017-09-05T18:49:44.105Z,11.10
2017-09-05T18:52:18.686Z,12.53
2017-09-05T18:54:53.159Z,9.93
2017-09-05T18:57:28.714Z,9.53
2017-09-05T19:00:03.149Z,10.70
2017-09-05T19:02:37.560Z,9.77
2017-09-05T19:05:12.264Z,10.93
2017-09-05T19:07:46.715Z,9.77
2017-09-05T19:10:21.067Z,10.00
2017-09-05T19:12:55.528Z,10.23
2017-09-05T19:15:30.010Z,9.50
2017-09-05T19:18:04.401Z,10.20
2017-09-05T19:20:38.825Z,10.13
2017-09-05T19:23:13.297Z,10.97
2017-09-05T19:25:47.792Z,10.30
2017-09-05T19:28:22.219Z,9.47
2017-09-05T19:30:56.565Z,11.23
2017-09-05T19:33:30.905Z,9.97
2017-09-05T19:36:05.316Z,10.43
2017-09-05T19:38:40.087Z,11.30
2017-09-05T19:41:14.693Z,10.10
2017-09-05T19:43:49.318Z,11.20
2017-09-05T19:46:23.765Z,11.10
2017-09-05T19:48:58.161Z,11.70
2017-09-05T19:51:32.531Z,10.80
2017-09-05T19:54:06.859Z,12.13
2017-09-05T19:56:41.235Z,10.97
2017-09-05T19:59:15.705Z,10.47
2017-09-05T20:01:50.157Z,11.73
2017-09-05T20:04:24.653Z,11.80
2017-09-05T20:06:59.019Z,10.77
2017-09-05T20:09:33.612Z,13.10
2017-09-05T20:12:08.065Z,11.57
2017-09-05T20:14:42.525Z,11.77
2017-09-05T20:17:16.957Z,11.43
2017-09-05T20:19:51.628Z,12.33
2017-09-05T20:22:26.127Z,12.10
2017-09-05T20:25:00.700Z,10.63
2017-09-05T20:27:35.196Z,10.83
2017-09-05T20:30:09.822Z,10.70
2017-09-05T20:32:44.396Z,12.13
2017-09-05T20:35:19.593Z,10.00
2017-09-05T20:37:53.934Z,11.03
2017-09-05T20:40:28.572Z,15.10
2017-09-05T20:43:03.000Z,11.20
2017-09-05T20:45:37.621Z,10.77
2017-09-05T20:48:12.050Z,11.07
2017-09-05T20:50:47.229Z,11.83
2017-09-05T20:53:21.500Z,11.63
2017-09-05T20:55:55.885Z,11.07
2017-09-05T20:58:30.377Z,11.80
2017-09-05T21:01:04.656Z,11.23
2017-09-05T21:03:39.278Z,12.00
2017-09-05T21:06:13.836Z,11.87
2017-09-05T21:08:48.800Z,13.23
2017-09-05T21:11:23.880Z,10.50
2017-09-05T21:14:00.138Z,12.17
2017-09-05T21:16:34.460Z,12.43
2017-09-05T21:19:08.940Z,12.30
2017-09-05T21:21:43.329Z,11.57
2017-09-05T21:24:17.677Z,11.53
2017-09-05T21:26:52.000Z,11.90
2017-09-05T21:29:26.392Z,11.13
2017-09-05T21:32:01.014Z,12.07
2017-09-05T21:34:35.484Z,11.03
2017-09-05T21:37:09.909Z,10.80
2017-09-05T21:39:44.341Z,12.23
2017-09-05T21:42:18.760Z,11.20
2017-09-05T21:44:53.273Z,9.40
2017-09-05T21:47:27.607Z,10.80
2017-09-05T21:50:02.069Z,12.80
2017-09-05T21:52:37.590Z,11.80
2017-09-05T21:55:12.069Z,11.60
2017-09-05T21:57:46.548Z,11.30
2017-09-05T22:00:20.973Z,10.40
2017-09-05T22:02:55.571Z,12.20
2017-09-05T22:05:29.950Z,11.67
2017-09-05T22:08:04.365Z,11.37
2017-09-05T22:10:38.879Z,10.97
2017-09-05T22:13:13.360Z,10.90
2017-09-05T22:15:47.839Z,10.37
2017-09-05T22:21:26.977Z,10.63
2017-09-05T22:24:01.444Z,11.48
2017-09-05T22:26:41.635Z,10.70
2017-09-05T22:29:16.055Z,11.03
2017-09-05T22:31:50.369Z,11.02
2017-09-05T22:34:24.870Z,10.50
2017-09-05T22:36:59.456Z,10.20
2017-09-05T22:39:33.795Z,10.18
2017-09-05T22:42:08.178Z,11.35
2017-09-05T22:44:42.733Z,11.05
2017-09-05T22:47:17.254Z,15.20
2017-09-05T22:49:51.639Z,10.20
2017-09-05T22:52:26.082Z,10.55
2017-09-05T22:55:00.534Z,9.15
2017-09-05T22:57:34.831Z,9.73
2017-09-05T23:00:09.238Z,8.98
2017-09-05T23:02:44.450Z,9.20
2017-09-05T23:05:18.981Z,10.50
2017-09-05T23:07:53.286Z,9.47
2017-09-05T23:10:27.822Z,10.52
2017-09-05T23:13:02.187Z,10.40
2017-09-05T23:15:36.741Z,9.95
2017-09-05T23:18:11.091Z,10.02
2017-09-05T23:20:45.569Z,9.80
2017-09-05T23:23:20.055Z,10.43
2017-09-05T23:25:54.437Z,12.37
2017-09-05T23:28:29.645Z,10.57
2017-09-05T23:31:04.095Z,11.38
2017-09-05T23:33:38.424Z,11.70
2017-09-05T23:36:12.907Z,12.02
2017-09-05T23:38:47.253Z,11.87
2017-09-05T23:41:21.677Z,10.98
2017-09-05T23:43:56.115Z,11.13
2017-09-05T23:46:30.706Z,10.38
2017-09-05T23:49:05.048Z,11.60
2017-09-05T23:51:39.793Z,14.43
2017-09-05T23:54:14.347Z,11.77
2017-09-05T23:56:49.056Z,13.30
2017-09-05T23:59:23.669Z,11.35
